Costa Atlantica — IBLQ — position and weather

sailwx.info

Track history (hours):
 
Tides and Currents Weather Stations Pressure Air Temp Water Temp Dewpoint Dewpoint Depression Visibility Wind Speed Wind Dir Waves Ship Positions

Costa Atlantica (Italy)

Last reported at 2017-Jun-24 11:33 UTC. Time now 2017-Jun-26 10:37 UTC.
Position N 31°06' E 122°20'.

Length 292 m; draft 8 m.

Type: Ship. MMSI: 247645000.

Date/timePositionNaut miles runAvg speedWind from/ knotsBaromVisibWave heightAir tempDewpointWater temp
2017-Jun-24 11:33N 31°06' E 122°20'1514.3
2017-Jun-24 10:32N 31°14' E 122°05'015.7
2017-Jun-24 10:30N 31°14' E 122°05'714.8
2017-Jun-24 10:00N 31°15' E 121°56'815.1
2017-Jun-24 09:30N 31°18' E 121°48'713.4
2017-Jun-24 09:00N 31°20' E 121°41'611.7
2017-Jun-24 08:30N 31°23' E 121°35'4 8.1
2017-Jun-24 08:00N 31°25' E 121°30'0 0.0
2017-Jun-24 07:26N 31°25' E 121°30'0 0.0
2017-Jun-24 06:50N 31°25' E 121°30'0 0.0
2017-Jun-24 06:26N 31°25' E 121°30'0 0.0
2017-Jun-24 05:53N 31°25' E 121°30'0 0.0
2017-Jun-24 05:26N 31°25' E 121°30'0 0.0
2017-Jun-24 04:56N 31°25' E 121°30'0 0.0
2017-Jun-24 04:26N 31°25' E 121°30'0 0.0
2017-Jun-24 03:53N 31°25' E 121°30'0 0.0
2017-Jun-24 03:20N 31°25' E 121°30'0 0.0
2017-Jun-24 02:53N 31°25' E 121°30'0 0.0
2017-Jun-24 02:26N 31°25' E 121°30'0 0.0
2017-Jun-24 01:56N 31°25' E 121°30'0 0.0
2017-Jun-24 01:23N 31°25' E 121°30'0 0.0
2017-Jun-24 00:56N 31°25' E 121°30'0 0.0
2017-Jun-24 00:26N 31°25' E 121°30'0 0.0
2017-Jun-23 23:56N 31°25' E 121°30'0 0.0
2017-Jun-23 23:26N 31°25' E 121°30'0 1.1
2017-Jun-23 23:00N 31°25' E 121°31'4 8.8
2017-Jun-23 22:30N 31°23' E 121°36'611.7
2017-Jun-23 22:00N 31°20' E 121°41'713.1
2017-Jun-23 21:30N 31°17' E 121°48'612.6
2017-Jun-23 21:00N 31°16' E 121°55'611.4
2017-Jun-23 20:30N 31°14' E 122°02'510.9
2017-Jun-23 20:00N 31°12' E 122°08'611.5
2017-Jun-23 19:30N 31°09' E 122°13'612.4
2017-Jun-23 19:00N 31°06' E 122°20'611.4
2017-Jun-23 18:30N 31°07' E 122°26'910.8
2017-Jun-23 17:42N 31°14' E 122°31'314.0
2017-Jun-23 17:30N 31°17' E 122°32'  
2017-Jun-20 10:45N 31°14' E 122°05'314.2
2017-Jun-20 10:30N 31°15' E 122°01'714.3
2017-Jun-20 10:00N 31°16' E 121°53'714.0
2017-Jun-20 09:30N 31°18' E 121°45'612.7
2017-Jun-20 09:00N 31°21' E 121°39'611.0
2017-Jun-20 08:30N 31°24' E 121°33'2 4.3
2017-Jun-20 07:58N 31°25' E 121°30'0 0.0
2017-Jun-20 07:28N 31°25' E 121°30'0 0.0
2017-Jun-20 07:00N 31°25' E 121°30'0 0.0
2017-Jun-20 06:28N 31°25' E 121°30'0 0.0
2017-Jun-20 05:58N 31°25' E 121°30'0 0.0
2017-Jun-20 05:28N 31°25' E 121°30'0 0.0
2017-Jun-20 05:01N 31°25' E 121°30'0 0.0
2017-Jun-20 04:28N 31°25' E 121°30'0 0.0
2017-Jun-20 03:58N 31°25' E 121°30'0 0.0
2017-Jun-20 03:28N 31°25' E 121°30'0 0.0
2017-Jun-20 02:58N 31°25' E 121°30'0 0.0
2017-Jun-20 02:31N 31°25' E 121°30'0 0.0
2017-Jun-20 01:58N 31°25' E 121°30'0 0.0
2017-Jun-20 01:28N 31°25' E 121°30'0 0.0
2017-Jun-20 00:58N 31°25' E 121°30'0 0.0
2017-Jun-20 00:28N 31°25' E 121°30'0 0.0
2017-Jun-19 23:58N 31°25' E 121°30'0 0.0
2017-Jun-19 23:28N 31°25' E 121°30'0 0.0
2017-Jun-19 22:57N 31°25' E 121°30'0 0.0
2017-Jun-19 22:10N 31°25' E 121°30'0 0.0
2017-Jun-19 21:58N 31°25' E 121°30'0 0.0
2017-Jun-19 21:22N 31°25' E 121°30'0 0.0
2017-Jun-19 21:01N 31°25' E 121°30'0 0.0
2017-Jun-19 20:28N 31°25' E 121°30'0 0.0
2017-Jun-19 19:58N 31°25' E 121°30'0 0.0
2017-Jun-19 19:28N 31°25' E 121°30'0 0.0
2017-Jun-19 18:46N 31°25' E 121°30'0 0.0
2017-Jun-19 18:22N 31°25' E 121°30'0 0.3
2017-Jun-19 18:00N 31°25' E 121°30'4 7.5
2017-Jun-19 17:30N 31°23' E 121°35'611.6
2017-Jun-19 17:00N 31°21' E 121°40'4 8.9
2017-Jun-19 16:30N 31°19' E 121°45'4 8.9
2017-Jun-19 16:00N 31°17' E 121°50'4 8.8
2017-Jun-19 15:30N 31°16' E 121°55'5 9.7
2017-Jun-19 15:00N 31°15' E 122°00'510.1
2017-Jun-19 14:30N 31°14' E 122°06'1010.2
2017-Jun-19 13:30N 31°08' E 122°16'510.4
2017-Jun-19 13:00N 31°06' E 122°22'4 8.6
2017-Jun-19 12:30N 31°08' E 122°26'4 7.8
2017-Jun-19 12:00N 31°10' E 122°30'714.7
2017-Jun-19 11:30N 31°17' E 122°32'713.6
2017-Jun-19 11:00N 31°20' E 122°39'  
2017-Jun-16 10:35N 31°14' E 122°05'115.1
2017-Jun-16 10:31N 31°14' E 122°03'815.1
2017-Jun-16 10:01N 31°16' E 121°55'714.6
2017-Jun-16 09:31N 31°18' E 121°46'612.9
2017-Jun-16 09:00N 31°21' E 121°40'611.5
2017-Jun-16 08:30N 31°24' E 121°34'3 6.2
2017-Jun-16 08:01N 31°25' E 121°30'0 0.0
2017-Jun-16 07:29N 31°25' E 121°30'0 0.0
2017-Jun-16 06:53N 31°25' E 121°30'0 0.0
2017-Jun-16 06:29N 31°25' E 121°30'0 0.0
2017-Jun-16 05:53N 31°25' E 121°30'0 0.0
2017-Jun-16 05:29N 31°25' E 121°30'0 0.0
2017-Jun-16 04:14N 31°25' E 121°30'0 0.0
2017-Jun-16 03:59N 31°25' E 121°30'0 0.0
2017-Jun-16 03:17N 31°25' E 121°30'0 0.0
2017-Jun-16 02:59N 31°25' E 121°30'0 0.0
2017-Jun-16 02:23N 31°25' E 121°30'0 0.0
2017-Jun-16 01:53N 31°25' E 121°30'0 0.0
2017-Jun-16 01:29N 31°25' E 121°30'0 0.0
2017-Jun-16 00:53N 31°25' E 121°30'0 0.0
2017-Jun-16 00:29N 31°25' E 121°30'0 0.0
2017-Jun-15 23:59N 31°25' E 121°30'0 0.3
2017-Jun-15 23:30N 31°25' E 121°30'4 8.2
2017-Jun-15 23:00N 31°23' E 121°35'611.1
2017-Jun-15 22:30N 31°21' E 121°41'5 9.4
2017-Jun-15 22:00N 31°18' E 121°46'510.3
2017-Jun-15 21:30N 31°16' E 121°51'510.7
2017-Jun-15 21:00N 31°15' E 121°57'611.6
2017-Jun-15 20:30N 31°14' E 122°04'510.9
2017-Jun-15 20:00N 31°12' E 122°09'611.6
2017-Jun-15 19:30N 31°08' E 122°15'510.2
2017-Jun-15 19:00N 31°06' E 122°20'610.6
2017-Jun-15 18:29N 31°07' E 122°27'1112.2
2017-Jun-15 17:33N 31°17' E 122°33'215.9
2017-Jun-15 17:25N 31°18' E 122°35'813.3
2017-Jun-15 16:51N 31°22' E 122°43'412.6
2017-Jun-15 16:30N 31°24' E 122°48'812.8
2017-Jun-15 15:53N 31°27' E 122°56'612.8
2017-Jun-15 15:24N 31°30' E 123°03'813.0
2017-Jun-15 14:46N 31°33' E 123°12'413.1
2017-Jun-15 14:27N 31°35' E 123°16'2213.1
2017-Jun-15 12:46N 31°45' E 123°39'312.9
2017-Jun-15 12:30N 31°47' E 123°42'713.2
2017-Jun-15 12:00N 31°49' E 123°49'713.0
2017-Jun-15 11:30N 31°52' E 123°56'612.8
2017-Jun-15 11:00N 31°55' E 124°03'612.9
2017-Jun-15 10:30N 31°58' E 124°10'9812.5
2017-Jun-15 02:40N 32°38' E 125°55'  
Track history (hours):
 
Tides and Currents Weather Stations Pressure Air Temp Water Temp Dewpoint Dewpoint Depression Visibility Wind Speed Wind Dir Waves Ship Positions

Costa Atlantica (Italy)

Last reported at 2017-Jun-24 11:33 UTC. Time now 2017-Jun-26 10:37 UTC.
Position N 31°06' E 122°20'.

Length 292 m; draft 8 m.

Type: Ship. MMSI: 247645000.

Date/timePositionNaut miles runAvg speedWind from/ knotsBaromVisibWave heightAir tempDewpointWater temp
2017-Jun-24 11:33N 31°06' E 122°20'1514.3
2017-Jun-24 10:32N 31°14' E 122°05'015.7
2017-Jun-24 10:30N 31°14' E 122°05'714.8
2017-Jun-24 10:00N 31°15' E 121°56'815.1
2017-Jun-24 09:30N 31°18' E 121°48'713.4
2017-Jun-24 09:00N 31°20' E 121°41'611.7
2017-Jun-24 08:30N 31°23' E 121°35'4 8.1
2017-Jun-24 08:00N 31°25' E 121°30'0 0.0
2017-Jun-24 07:26N 31°25' E 121°30'0 0.0
2017-Jun-24 06:50N 31°25' E 121°30'0 0.0
2017-Jun-24 06:26N 31°25' E 121°30'0 0.0
2017-Jun-24 05:53N 31°25' E 121°30'0 0.0
2017-Jun-24 05:26N 31°25' E 121°30'0 0.0
2017-Jun-24 04:56N 31°25' E 121°30'0 0.0
2017-Jun-24 04:26N 31°25' E 121°30'0 0.0
2017-Jun-24 03:53N 31°25' E 121°30'0 0.0
2017-Jun-24 03:20N 31°25' E 121°30'0 0.0
2017-Jun-24 02:53N 31°25' E 121°30'0 0.0
2017-Jun-24 02:26N 31°25' E 121°30'0 0.0
2017-Jun-24 01:56N 31°25' E 121°30'0 0.0
2017-Jun-24 01:23N 31°25' E 121°30'0 0.0
2017-Jun-24 00:56N 31°25' E 121°30'0 0.0
2017-Jun-24 00:26N 31°25' E 121°30'0 0.0
2017-Jun-23 23:56N 31°25' E 121°30'0 0.0
2017-Jun-23 23:26N 31°25' E 121°30'0 1.1
2017-Jun-23 23:00N 31°25' E 121°31'4 8.8
2017-Jun-23 22:30N 31°23' E 121°36'611.7
2017-Jun-23 22:00N 31°20' E 121°41'713.1
2017-Jun-23 21:30N 31°17' E 121°48'612.6
2017-Jun-23 21:00N 31°16' E 121°55'611.4
2017-Jun-23 20:30N 31°14' E 122°02'510.9
2017-Jun-23 20:00N 31°12' E 122°08'611.5
2017-Jun-23 19:30N 31°09' E 122°13'612.4
2017-Jun-23 19:00N 31°06' E 122°20'611.4
2017-Jun-23 18:30N 31°07' E 122°26'910.8
2017-Jun-23 17:42N 31°14' E 122°31'314.0
2017-Jun-23 17:30N 31°17' E 122°32'  
2017-Jun-20 10:45N 31°14' E 122°05'314.2
2017-Jun-20 10:30N 31°15' E 122°01'714.3
2017-Jun-20 10:00N 31°16' E 121°53'714.0
2017-Jun-20 09:30N 31°18' E 121°45'612.7
2017-Jun-20 09:00N 31°21' E 121°39'611.0
2017-Jun-20 08:30N 31°24' E 121°33'2 4.3
2017-Jun-20 07:58N 31°25' E 121°30'0 0.0
2017-Jun-20 07:28N 31°25' E 121°30'0 0.0
2017-Jun-20 07:00N 31°25' E 121°30'0 0.0
2017-Jun-20 06:28N 31°25' E 121°30'0 0.0
2017-Jun-20 05:58N 31°25' E 121°30'0 0.0
2017-Jun-20 05:28N 31°25' E 121°30'0 0.0
2017-Jun-20 05:01N 31°25' E 121°30'0 0.0
2017-Jun-20 04:28N 31°25' E 121°30'0 0.0
2017-Jun-20 03:58N 31°25' E 121°30'0 0.0
2017-Jun-20 03:28N 31°25' E 121°30'0 0.0
2017-Jun-20 02:58N 31°25' E 121°30'0 0.0
2017-Jun-20 02:31N 31°25' E 121°30'0 0.0
2017-Jun-20 01:58N 31°25' E 121°30'0 0.0
2017-Jun-20 01:28N 31°25' E 121°30'0 0.0
2017-Jun-20 00:58N 31°25' E 121°30'0 0.0
2017-Jun-20 00:28N 31°25' E 121°30'0 0.0
2017-Jun-19 23:58N 31°25' E 121°30'0 0.0
2017-Jun-19 23:28N 31°25' E 121°30'0 0.0
2017-Jun-19 22:57N 31°25' E 121°30'0 0.0
2017-Jun-19 22:10N 31°25' E 121°30'0 0.0
2017-Jun-19 21:58N 31°25' E 121°30'0 0.0
2017-Jun-19 21:22N 31°25' E 121°30'0 0.0
2017-Jun-19 21:01N 31°25' E 121°30'0 0.0
2017-Jun-19 20:28N 31°25' E 121°30'0 0.0
2017-Jun-19 19:58N 31°25' E 121°30'0 0.0
2017-Jun-19 19:28N 31°25' E 121°30'0 0.0
2017-Jun-19 18:46N 31°25' E 121°30'0 0.0
2017-Jun-19 18:22N 31°25' E 121°30'0 0.3
2017-Jun-19 18:00N 31°25' E 121°30'4 7.5
2017-Jun-19 17:30N 31°23' E 121°35'611.6
2017-Jun-19 17:00N 31°21' E 121°40'4 8.9
2017-Jun-19 16:30N 31°19' E 121°45'4 8.9
2017-Jun-19 16:00N 31°17' E 121°50'4 8.8
2017-Jun-19 15:30N 31°16' E 121°55'5 9.7
2017-Jun-19 15:00N 31°15' E 122°00'510.1
2017-Jun-19 14:30N 31°14' E 122°06'1010.2
2017-Jun-19 13:30N 31°08' E 122°16'510.4
2017-Jun-19 13:00N 31°06' E 122°22'4 8.6
2017-Jun-19 12:30N 31°08' E 122°26'4 7.8
2017-Jun-19 12:00N 31°10' E 122°30'714.7
2017-Jun-19 11:30N 31°17' E 122°32'713.6
2017-Jun-19 11:00N 31°20' E 122°39'  
2017-Jun-16 10:35N 31°14' E 122°05'115.1
2017-Jun-16 10:31N 31°14' E 122°03'815.1
2017-Jun-16 10:01N 31°16' E 121°55'714.6
2017-Jun-16 09:31N 31°18' E 121°46'612.9
2017-Jun-16 09:00N 31°21' E 121°40'611.5
2017-Jun-16 08:30N 31°24' E 121°34'3 6.2
2017-Jun-16 08:01N 31°25' E 121°30'0 0.0
2017-Jun-16 07:29N 31°25' E 121°30'0 0.0
2017-Jun-16 06:53N 31°25' E 121°30'0 0.0
2017-Jun-16 06:29N 31°25' E 121°30'0 0.0
2017-Jun-16 05:53N 31°25' E 121°30'0 0.0
2017-Jun-16 05:29N 31°25' E 121°30'0 0.0
2017-Jun-16 04:14N 31°25' E 121°30'0 0.0
2017-Jun-16 03:59N 31°25' E 121°30'0 0.0
2017-Jun-16 03:17N 31°25' E 121°30'0 0.0
2017-Jun-16 02:59N 31°25' E 121°30'0 0.0
2017-Jun-16 02:23N 31°25' E 121°30'0 0.0
2017-Jun-16 01:53N 31°25' E 121°30'0 0.0
2017-Jun-16 01:29N 31°25' E 121°30'0 0.0
2017-Jun-16 00:53N 31°25' E 121°30'0 0.0
2017-Jun-16 00:29N 31°25' E 121°30'0 0.0
2017-Jun-15 23:59N 31°25' E 121°30'0 0.3
2017-Jun-15 23:30N 31°25' E 121°30'4 8.2
2017-Jun-15 23:00N 31°23' E 121°35'611.1
2017-Jun-15 22:30N 31°21' E 121°41'5 9.4
2017-Jun-15 22:00N 31°18' E 121°46'510.3
2017-Jun-15 21:30N 31°16' E 121°51'510.7
2017-Jun-15 21:00N 31°15' E 121°57'611.6
2017-Jun-15 20:30N 31°14' E 122°04'510.9
2017-Jun-15 20:00N 31°12' E 122°09'611.6
2017-Jun-15 19:30N 31°08' E 122°15'510.2
2017-Jun-15 19:00N 31°06' E 122°20'610.6
2017-Jun-15 18:29N 31°07' E 122°27'1112.2
2017-Jun-15 17:33N 31°17' E 122°33'215.9
2017-Jun-15 17:25N 31°18' E 122°35'813.3
2017-Jun-15 16:51N 31°22' E 122°43'412.6
2017-Jun-15 16:30N 31°24' E 122°48'812.8
2017-Jun-15 15:53N 31°27' E 122°56'612.8
2017-Jun-15 15:24N 31°30' E 123°03'813.0
2017-Jun-15 14:46N 31°33' E 123°12'413.1
2017-Jun-15 14:27N 31°35' E 123°16'2213.1
2017-Jun-15 12:46N 31°45' E 123°39'312.9
2017-Jun-15 12:30N 31°47' E 123°42'713.2
2017-Jun-15 12:00N 31°49' E 123°49'713.0
2017-Jun-15 11:30N 31°52' E 123°56'612.8
2017-Jun-15 11:00N 31°55' E 124°03'612.9
2017-Jun-15 10:30N 31°58' E 124°10'9812.5
2017-Jun-15 02:40N 32°38' E 125°55'  

Dump ship's entire track history